English Bay, Alaska
Current Conditions -  °F | °C
As of 5:53 PM on Wednesday 22 Oct 2014 (Local Time) from PAHO Reporting Station
Clear Clear  
Wind Chill: 46°   Ceiling: Unl
Heat Index: 46°   Visibility: 10mi
Dew Point: 24°   Wind: 0mph
Humidity: 42%   Direction: NA
Pressure: 29.39"   Gusts: NA
Location:  59.7153°N, 150.773°W
Report Text: PAHO 230153Z 00000KT 10SM CLR 08/M04 A2939 RMK AO2 SLP953 T00781044
Loading
Personal Weather Stations






























Interactive Weather Map
Tropical Storm Tracking
New forecast layout! Learn more

10-Day Weather Forecast

Advertisements
Track Severe Weather on mobile